Time;durP1;ratioP1;P1;durP2;ratioP2;P2;SDS_P1;SDS_P2;PMS_P1;PMS_P2;Temp;Humidity;BMP_temperature;BMP_pressure;BME280_temperature;BME280_humidity;BME280_pressure;Samples;Min_cycle;Max_cycle;Signal;HPM_P1;HPM_P2
2023/12/15 00:00:55;;;;;;;10.35;5.63;;;;;;;0.30;100.00;99423.19;6103201;19;20011;-72
2023/12/15 00:02:56;;;;;;;7.95;4.82;;;;;;;0.31;100.00;99421.28;6103041;19;20006;-72
2023/12/15 00:04:56;;;;;;;9.95;5.40;;;;;;;0.31;100.00;99416.63;6103706;19;20013;-72
2023/12/15 00:06:57;;;;;;;9.35;4.70;;;;;;;0.34;100.00;99410.63;6103329;19;20003;-72
2023/12/15 00:08:57;;;;;;;8.80;5.72;;;;;;;0.33;100.00;99416.34;6103514;19;20023;-72
2023/12/15 00:10:58;;;;;;;10.15;5.05;;;;;;;0.33;100.00;99429.94;6102340;19;20230;-72
2023/12/15 00:12:59;;;;;;;9.45;5.05;;;;;;;0.31;100.00;99427.53;6102765;19;20013;-72
2023/12/15 00:14:59;;;;;;;9.43;5.35;;;;;;;0.27;100.00;99432.75;6103169;19;20077;-72
2023/12/15 00:16:59;;;;;;;10.32;6.05;;;;;;;0.26;100.00;99433.84;6103448;19;20007;-72
2023/12/15 00:19:00;;;;;;;10.32;5.03;;;;;;;0.23;100.00;99430.88;6102799;19;20386;-71
2023/12/15 00:21:00;;;;;;;10.80;5.97;;;;;;;0.18;100.00;99431.75;6101219;19;20009;-72
2023/12/15 00:23:00;;;;;;;11.30;5.88;;;;;;;0.19;100.00;99446.16;6103061;19;20327;-72
2023/12/15 00:25:01;;;;;;;9.30;5.82;;;;;;;0.15;100.00;99447.81;6100796;19;20462;-72
2023/12/15 00:27:01;;;;;;;9.25;5.38;;;;;;;0.11;100.00;99446.78;6101841;19;20419;-72
2023/12/15 00:29:05;;;;;;;10.05;5.63;;;;;;;0.16;100.00;99452.16;6103869;19;20014;-72
2023/12/15 00:31:05;;;;;;;10.10;5.35;;;;;;;0.09;100.00;99454.41;6101606;19;20016;-72
2023/12/15 00:33:06;;;;;;;10.18;5.10;;;;;;;0.10;100.00;99456.84;6102932;19;20010;-72
2023/12/15 00:35:07;;;;;;;11.32;5.32;;;;;;;0.10;100.00;99451.41;6102735;19;20002;-72
2023/12/15 00:37:07;;;;;;;11.68;6.35;;;;;;;0.10;100.00;99458.75;6103146;19;20330;-72
2023/12/15 00:39:07;;;;;;;9.38;5.80;;;;;;;0.07;100.00;99465.56;6101603;19;20850;-72
2023/12/15 00:41:08;;;;;;;10.15;5.63;;;;;;;0.05;100.00;99475.94;6102036;19;20313;-72
2023/12/15 00:43:08;;;;;;;11.27;6.15;;;;;;;0.10;100.00;99473.19;6102991;19;20007;-72
2023/12/15 00:45:09;;;;;;;11.73;6.05;;;;;;;0.12;100.00;99479.13;6102038;19;20329;-71
2023/12/15 00:47:09;;;;;;;12.38;6.75;;;;;;;0.10;100.00;99484.06;6101653;19;20410;-71
2023/12/15 00:49:09;;;;;;;10.15;5.68;;;;;;;0.13;100.00;99488.94;6102427;19;20003;-71
2023/12/15 00:51:10;;;;;;;10.48;5.78;;;;;;;0.11;100.00;99491.13;6100160;19;20003;-72
2023/12/15 00:53:10;;;;;;;11.35;5.57;;;;;;;0.11;100.00;99491.13;6102054;19;20452;-72
2023/12/15 00:55:10;;;;;;;11.60;5.57;;;;;;;0.18;100.00;99497.06;6101851;19;20522;-72
2023/12/15 00:57:11;;;;;;;13.15;6.00;;;;;;;0.30;100.00;99499.41;6101616;19;20461;-72
2023/12/15 00:59:11;;;;;;;9.15;5.28;;;;;;;0.27;100.00;99499.97;6102429;19;20832;-72
2023/12/15 01:01:11;;;;;;;12.07;5.50;;;;;;;0.29;100.00;99508.66;6100352;19;20017;-72
2023/12/15 01:03:12;;;;;;;12.27;6.32;;;;;;;0.25;100.00;99507.63;6103061;19;20011;-72
2023/12/15 01:05:12;;;;;;;10.77;5.78;;;;;;;0.23;100.00;99510.59;6101465;19;20006;-72
2023/12/15 01:07:12;;;;;;;10.65;6.20;;;;;;;0.17;100.00;99513.69;6101887;19;20006;-72
2023/12/15 01:09:12;;;;;;;11.48;6.55;;;;;;;0.17;100.00;99513.69;6102132;19;20336;-72
2023/12/15 01:11:13;;;;;;;13.00;7.00;;;;;;;0.20;100.00;99513.09;6099512;19;20349;-72
2023/12/15 01:13:13;;;;;;;10.50;5.78;;;;;;;0.18;100.00;99526.19;6101644;19;20026;-72
2023/12/15 01:15:14;;;;;;;9.60;5.65;;;;;;;0.19;100.00;99515.00;6102048;19;20070;-72
2023/12/15 01:17:14;;;;;;;13.02;6.97;;;;;;;0.15;100.00;99518.56;6101387;19;20392;-71
2023/12/15 01:19:16;;;;;;;11.63;5.60;;;;;;;0.13;100.00;99521.59;6102633;19;20474;-71
2023/12/15 01:21:16;;;;;;;13.43;6.43;;;;;;;0.07;100.00;99514.53;6099106;19;20010;-71
2023/12/15 01:23:17;;;;;;;10.93;5.55;;;;;;;0.09;100.00;99519.72;6101387;19;20033;-72
2023/12/15 01:25:17;;;;;;;11.63;6.60;;;;;;;0.12;100.00;99528.13;6100531;19;20006;-72
2023/12/15 01:27:17;;;;;;;14.38;7.72;;;;;;;0.18;100.00;99528.91;6101283;19;20030;-72
2023/12/15 01:29:18;;;;;;;14.05;7.13;;;;;;;0.17;100.00;99540.91;6101201;19;20026;-72
2023/12/15 01:31:18;;;;;;;12.57;7.10;;;;;;;0.15;100.00;99538.44;6100475;19;20002;-72
2023/12/15 01:33:18;;;;;;;13.02;6.75;;;;;;;0.14;100.00;99544.16;6100581;19;20405;-72
2023/12/15 01:35:19;;;;;;;10.40;5.57;;;;;;;0.19;100.00;99544.13;6101317;19;20463;-72
2023/12/15 01:37:19;;;;;;;13.75;5.55;;;;;;;0.20;100.00;99548.47;6100431;19;20462;-71
2023/12/15 01:39:19;;;;;;;10.23;5.47;;;;;;;0.18;100.00;99540.59;6100513;19;20456;-71
2023/12/15 01:41:19;;;;;;;9.52;5.50;;;;;;;0.22;100.00;99549.81;6099325;19;20010;-71
2023/12/15 01:43:20;;;;;;;7.68;5.07;;;;;;;0.24;100.00;99565.84;6101072;19;20453;-72
2023/12/15 01:45:20;;;;;;;8.82;5.10;;;;;;;0.19;100.00;99561.28;6100734;19;20010;-72
2023/12/15 01:47:24;;;;;;;11.82;5.60;;;;;;;0.17;100.00;99555.31;6101004;19;20020;-72
2023/12/15 01:49:27;;;;;;;8.98;5.47;;;;;;;0.13;100.00;99565.13;6089307;19;20006;-72
2023/12/15 01:51:27;;;;;;;10.55;5.50;;;;;;;0.24;100.00;99569.38;6098255;19;20011;-72
2023/12/15 01:53:27;;;;;;;8.65;5.18;;;;;;;0.21;100.00;99559.09;6101032;19;20002;-72
2023/12/15 01:55:28;;;;;;;11.15;5.65;;;;;;;0.23;100.00;99577.84;6099580;19;20021;-72
2023/12/15 01:57:28;;;;;;;11.07;5.13;;;;;;;0.24;100.00;99571.31;6099376;19;20011;-72
2023/12/15 01:59:41;;;;;;;9.70;5.25;;;;;;;0.24;100.00;99574.03;6099506;19;20466;-72
2023/12/15 02:01:42;;;;;;;8.60;5.05;;;;;;;0.19;100.00;99569.44;6100392;19;20034;-71
2023/12/15 02:03:42;;;;;;;9.35;5.28;;;;;;;0.17;100.00;99573.56;6100585;19;20087;-71
2023/12/15 02:05:42;;;;;;;11.05;6.07;;;;;;;0.15;100.00;99575.72;6100088;19;20011;-71
2023/12/15 02:07:43;;;;;;;10.55;5.50;;;;;;;0.09;100.00;99582.31;6099359;19;20219;-71
2023/12/15 02:09:43;;;;;;;8.27;4.85;;;;;;;0.17;100.00;99587.97;6093110;19;20494;-72
2023/12/15 02:11:43;;;;;;;11.18;6.00;;;;;;;0.22;100.00;99585.19;6100352;19;20102;-72
2023/12/15 02:13:44;;;;;;;8.63;5.20;;;;;;;0.22;100.00;99590.66;6100323;19;20022;-72
2023/12/15 02:15:44;;;;;;;9.77;5.35;;;;;;;0.23;100.00;99580.56;6097785;19;20010;-72
2023/12/15 02:17:44;;;;;;;9.52;5.05;;;;;;;0.21;100.00;99585.50;6099544;19;20017;-72
2023/12/15 02:19:45;;;;;;;12.30;5.50;;;;;;;0.18;100.00;99586.88;6097711;19;20380;-72
2023/12/15 02:21:45;;;;;;;10.13;5.07;;;;;;;0.18;100.00;99586.88;6099712;19;20473;-72
2023/12/15 02:23:46;;;;;;;9.30;5.07;;;;;;;0.17;100.00;99577.09;6099637;19;20078;-72
2023/12/15 02:25:46;;;;;;;8.10;5.03;;;;;;;0.18;100.00;99581.44;6098872;19;20023;-72
2023/12/15 02:27:46;;;;;;;10.43;5.57;;;;;;;0.22;100.00;99577.03;6098711;19;20010;-72
2023/12/15 02:29:47;;;;;;;9.90;5.63;;;;;;;0.24;100.00;99576.75;6098784;19;20350;-71
2023/12/15 02:31:47;;;;;;;12.07;5.13;;;;;;;0.27;100.00;99578.91;6099075;19;20420;-71
2023/12/15 02:33:48;;;;;;;10.38;5.78;;;;;;;0.28;100.00;99586.00;6100756;19;20003;-71
2023/12/15 02:35:50;;;;;;;8.70;5.35;;;;;;;0.35;100.00;99578.31;6099239;19;20021;-72
2023/12/15 02:37:50;;;;;;;10.13;5.68;;;;;;;0.42;100.00;99589.69;6095439;19;20010;-72
2023/12/15 02:39:50;;;;;;;8.98;5.38;;;;;;;0.53;100.00;99584.97;6097893;19;20227;-72
2023/12/15 02:41:51;;;;;;;10.27;5.97;;;;;;;0.51;100.00;99588.00;6099220;19;20007;-72
2023/12/15 02:43:51;;;;;;;9.55;5.25;;;;;;;0.60;100.00;99595.56;6098775;19;20016;-72
2023/12/15 02:45:51;;;;;;;8.57;4.75;;;;;;;0.60;100.00;99592.81;6098935;19;20458;-71
2023/12/15 02:47:52;;;;;;;10.05;5.80;;;;;;;0.53;100.00;99591.22;6097919;19;20329;-71
2023/12/15 02:49:54;;;;;;;10.70;5.80;;;;;;;0.52;100.00;99597.78;6096617;19;20006;-71
2023/12/15 02:51:54;;;;;;;8.98;5.22;;;;;;;0.56;100.00;99601.53;6090008;19;20331;-72
2023/12/15 02:53:57;;;;;;;11.35;5.28;;;;;;;0.59;100.00;99611.06;6089572;19;19998;-72
2023/12/15 02:55:58;;;;;;;9.85;5.95;;;;;;;0.59;100.00;99604.81;6090400;19;19995;-72
2023/12/15 02:57:58;;;;;;;10.23;6.30;;;;;;;0.57;100.00;99605.09;6090346;19;20355;-72
2023/12/15 02:59:58;;;;;;;9.75;5.72;;;;;;;0.57;100.00;99605.91;6088037;19;20498;-71
2023/12/15 03:01:59;;;;;;;10.13;5.40;;;;;;;0.59;100.00;99602.91;6090822;19;20074;-71
2023/12/15 03:03:59;;;;;;;10.77;5.20;;;;;;;0.55;100.00;99610.81;6091083;19;20007;-71
2023/12/15 03:05:59;;;;;;;9.50;5.18;;;;;;;0.60;100.00;99614.63;6089014;19;20015;-72
2023/12/15 03:08:00;;;;;;;10.43;5.30;;;;;;;0.60;100.00;99623.59;6089349;19;20020;-72
2023/12/15 03:10:00;;;;;;;10.25;5.28;;;;;;;0.61;100.00;99624.41;6088936;19;20026;-72
2023/12/15 03:12:00;;;;;;;8.95;5.38;;;;;;;0.62;100.00;99617.84;6089917;19;20358;-72
2023/12/15 03:14:00;;;;;;;10.18;5.10;;;;;;;0.58;100.00;99614.91;6090432;19;20361;-72
2023/12/15 03:16:10;;;;;;;10.30;5.70;;;;;;;0.57;100.00;99619.50;6089289;19;20902;-72
2023/12/15 03:18:10;;;;;;;9.70;5.10;;;;;;;0.56;100.00;99617.06;6089887;19;20458;-72
2023/12/15 03:20:11;;;;;;;9.48;5.70;;;;;;;0.61;100.00;99618.97;6088484;19;20066;-71
2023/12/15 03:22:11;;;;;;;12.13;6.50;;;;;;;0.68;100.00;99616.72;6090034;19;20482;-71
2023/12/15 03:24:11;;;;;;;11.85;5.85;;;;;;;0.67;100.00;99631.44;6089455;19;20038;-71
2023/12/15 03:26:12;;;;;;;10.05;5.68;;;;;;;0.65;100.00;99628.16;6090098;19;20001;-72
2023/12/15 03:28:12;;;;;;;10.20;5.20;;;;;;;0.64;100.00;99624.63;6088633;19;20021;-72
2023/12/15 03:30:12;;;;;;;12.05;5.97;;;;;;;0.68;100.00;99633.88;6087590;19;20036;-72
2023/12/15 03:32:13;;;;;;;9.48;5.22;;;;;;;0.70;100.00;99630.88;6089668;19;20576;-71
2023/12/15 03:34:13;;;;;;;10.82;5.53;;;;;;;0.72;100.00;99628.66;6088884;19;20440;-72
2023/12/15 03:36:13;;;;;;;10.45;5.65;;;;;;;0.69;100.00;99631.97;6087934;19;19999;-72
2023/12/15 03:38:14;;;;;;;9.15;5.65;;;;;;;0.67;100.00;99629.53;6090282;19;20011;-72
2023/12/15 03:40:15;;;;;;;9.02;5.13;;;;;;;0.66;100.00;99624.34;6087405;19;20453;-72
2023/12/15 03:42:15;;;;;;;8.65;4.95;;;;;;;0.64;100.00;99630.09;6089454;19;20041;-72
2023/12/15 03:44:15;;;;;;;10.07;5.45;;;;;;;0.65;100.00;99631.72;6090286;19;20322;-72
2023/12/15 03:46:16;;;;;;;10.82;5.75;;;;;;;0.67;100.00;99640.44;6089688;19;20007;-72
2023/12/15 03:48:16;;;;;;;10.93;5.00;;;;;;;0.72;100.00;99634.94;6088945;19;20333;-72
2023/12/15 03:50:16;;;;;;;10.98;5.38;;;;;;;0.73;100.00;99638.47;6093183;19;19999;-72
2023/12/15 03:52:17;;;;;;;9.50;5.22;;;;;;;0.78;100.00;99641.97;6103654;19;19999;-72
2023/12/15 03:54:17;;;;;;;9.88;5.10;;;;;;;0.86;100.00;99645.19;6103801;19;19999;-71
2023/12/15 03:56:25;;;;;;;9.05;5.32;;;;;;;0.84;100.00;99645.47;6102428;19;20023;-71
2023/12/15 03:58:25;;;;;;;8.95;5.28;;;;;;;0.84;100.00;99650.91;6103540;19;20025;-71
2023/12/15 04:00:28;;;;;;;10.70;5.38;;;;;;;0.87;100.00;99639.44;6102320;19;20014;-71
2023/12/15 04:02:28;;;;;;;10.88;5.80;;;;;;;0.94;100.00;99645.38;6104214;19;20017;-71
2023/12/15 04:04:28;;;;;;;12.38;5.88;;;;;;;0.94;100.00;99648.09;6102881;19;20458;-72
2023/12/15 04:06:29;;;;;;;10.23;5.85;;;;;;;0.94;100.00;99650.00;6102163;19;20106;-72
2023/12/15 04:08:29;;;;;;;10.70;5.07;;;;;;;0.90;100.00;99649.75;6103639;19;20070;-72
2023/12/15 04:10:29;;;;;;;9.25;5.28;;;;;;;0.90;100.00;99652.47;6102530;19;20277;-72
2023/12/15 04:12:30;;;;;;;9.70;4.82;;;;;;;0.91;100.00;99653.28;6102881;19;20033;-72
2023/12/15 04:14:32;;;;;;;9.23;5.38;;;;;;;0.92;100.00;99655.75;6103475;19;20006;-72
2023/12/15 04:16:32;;;;;;;9.25;5.25;;;;;;;0.90;100.00;99655.19;6102425;19;20082;-72
2023/12/15 04:18:33;;;;;;;9.90;5.18;;;;;;;0.90;100.00;99657.13;6103464;19;20011;-72
2023/12/15 04:20:34;;;;;;;11.07;6.20;;;;;;;0.91;100.00;99665.03;6101267;19;20010;-72
2023/12/15 04:22:34;;;;;;;12.15;5.68;;;;;;;0.95;100.00;99662.53;6101779;19;20011;-72
2023/12/15 04:24:34;;;;;;;12.23;5.65;;;;;;;0.97;100.00;99661.16;6102135;19;20010;-72
2023/12/15 04:26:35;;;;;;;11.18;6.15;;;;;;;0.99;100.00;99682.66;6102588;19;20478;-72
2023/12/15 04:28:35;;;;;;;11.88;5.50;;;;;;;0.94;100.00;99669.91;6102385;19;20377;-72
2023/12/15 04:30:35;;;;;;;11.77;5.97;;;;;;;0.96;100.00;99678.59;6102236;19;20930;-72
2023/12/15 04:32:36;;;;;;;10.23;5.35;;;;;;;0.97;100.00;99674.75;6101920;19;20011;-72
2023/12/15 04:34:37;;;;;;;10.55;5.75;;;;;;;0.96;100.00;99684.03;6102857;19;20024;-72
2023/12/15 04:36:39;;;;;;;10.65;5.38;;;;;;;0.94;100.00;99686.25;6103244;19;20415;-72
2023/12/15 04:38:39;;;;;;;10.70;5.88;;;;;;;0.93;100.00;99687.34;6102909;19;20013;-72
2023/12/15 04:40:40;;;;;;;11.98;6.07;;;;;;;0.90;100.00;99685.19;6101045;19;20007;-72
2023/12/15 04:42:41;;;;;;;10.20;5.30;;;;;;;0.87;100.00;99683.03;6103155;19;20118;-72
2023/12/15 04:44:41;;;;;;;11.40;5.93;;;;;;;0.80;100.00;99688.81;6101547;19;20318;-72
2023/12/15 04:46:41;;;;;;;12.55;5.60;;;;;;;0.80;100.00;99685.25;6100670;19;20009;-72
2023/12/15 04:48:42;;;;;;;10.15;5.20;;;;;;;0.78;100.00;99692.91;6101918;19;20013;-72
2023/12/15 04:50:42;;;;;;;11.60;5.57;;;;;;;0.72;100.00;99680.41;6100478;19;20014;-72
2023/12/15 04:52:42;;;;;;;11.90;5.55;;;;;;;0.69;100.00;99676.38;6102142;19;20014;-72
2023/12/15 04:54:43;;;;;;;10.23;5.20;;;;;;;0.67;100.00;99685.94;6102367;19;20047;-72
2023/12/15 04:56:44;;;;;;;12.30;6.35;;;;;;;0.60;100.00;99683.50;6097587;19;20070;-71
2023/12/15 04:58:46;;;;;;;12.48;5.80;;;;;;;0.55;100.00;99680.81;6100335;19;20011;-71
2023/12/15 05:00:46;;;;;;;9.45;5.20;;;;;;;0.51;100.00;99687.94;6099773;19;20542;-71
2023/12/15 05:02:47;;;;;;;11.27;5.38;;;;;;;0.53;100.00;99694.72;6101851;19;20122;-72
2023/12/15 05:04:47;;;;;;;10.98;5.47;;;;;;;0.52;100.00;99693.09;6101541;19;20043;-72
2023/12/15 05:06:48;;;;;;;10.55;5.78;;;;;;;0.48;100.00;99696.66;6100216;19;20007;-72
2023/12/15 05:08:52;;;;;;;9.75;5.20;;;;;;;0.45;100.00;99708.13;6101139;19;20010;-72
2023/12/15 05:10:52;;;;;;;11.20;5.50;;;;;;;0.40;100.00;99702.69;6097510;19;20022;-72
2023/12/15 05:12:52;;;;;;;13.30;6.05;;;;;;;0.37;100.00;99704.06;6100037;19;20454;-72
2023/12/15 05:14:53;;;;;;;13.68;7.07;;;;;;;0.37;100.00;99706.78;6100924;19;20006;-72
2023/12/15 05:16:53;;;;;;;9.88;5.70;;;;;;;0.34;100.00;99701.94;6101691;19;20006;-72
2023/12/15 05:18:53;;;;;;;12.35;5.80;;;;;;;0.35;100.00;99705.47;6100633;19;20058;-72
2023/12/15 05:20:54;;;;;;;11.07;5.38;;;;;;;0.33;100.00;99708.44;6099501;19;20470;-72
2023/12/15 05:22:54;;;;;;;13.00;5.60;;;;;;;0.31;100.00;99705.19;6100923;19;20321;-72
2023/12/15 05:24:54;;;;;;;9.32;5.38;;;;;;;0.34;100.00;99709.28;6100680;19;20354;-72
2023/12/15 05:26:55;;;;;;;11.93;5.90;;;;;;;0.31;100.00;99707.09;6100210;19;20006;-71
2023/12/15 05:28:56;;;;;;;11.50;5.97;;;;;;;0.33;100.00;99707.63;6101044;19;20015;-72
2023/12/15 05:30:56;;;;;;;9.00;4.85;;;;;;;0.31;100.00;99696.22;6100172;19;20533;-72
2023/12/15 05:32:57;;;;;;;14.55;6.35;;;;;;;0.31;100.00;99707.91;6100862;19;20090;-72
2023/12/15 05:34:57;;;;;;;10.57;5.93;;;;;;;0.27;100.00;99709.59;6098682;19;20033;-72
2023/12/15 05:36:57;;;;;;;13.93;6.30;;;;;;;0.21;100.00;99703.34;6099563;19;20007;-72
2023/12/15 05:38:59;;;;;;;12.05;5.78;;;;;;;0.16;100.00;99706.06;6097031;19;19998;-72
2023/12/15 05:41:01;;;;;;;10.93;5.30;;;;;;;0.13;100.00;99708.56;6094529;19;20034;-72
2023/12/15 05:43:01;;;;;;;10.40;5.40;;;;;;;0.04;100.00;99726.56;6097931;19;20375;-72
2023/12/15 05:45:01;;;;;;;12.10;4.68;;;;;;;-0.02;100.00;99714.88;6096892;19;20015;-72
2023/12/15 05:47:02;;;;;;;10.07;5.30;;;;;;;-0.02;100.00;99723.84;6098533;19;20403;-72
2023/12/15 05:49:02;;;;;;;11.63;5.85;;;;;;;-0.01;100.00;99730.91;6098267;19;20392;-71
2023/12/15 05:51:04;;;;;;;12.05;5.53;;;;;;;-0.03;100.00;99726.84;6095896;19;20006;-71
2023/12/15 05:53:04;;;;;;;13.43;5.40;;;;;;;-0.06;100.00;99730.94;6100177;19;20451;-72
2023/12/15 05:55:05;;;;;;;12.25;5.75;;;;;;;-0.11;100.00;99730.13;6099174;19;20011;-72
2023/12/15 05:57:06;;;;;;;12.07;6.68;;;;;;;-0.16;100.00;99749.22;6100201;19;20018;-72
2023/12/15 05:59:06;;;;;;;12.27;5.70;;;;;;;-0.22;100.00;99748.41;6095222;19;20408;-71
2023/12/15 06:01:07;;;;;;;12.68;5.60;;;;;;;-0.20;100.00;99748.13;6096997;19;20010;-71
2023/12/15 06:03:07;;;;;;;11.40;5.35;;;;;;;-0.23;100.00;99757.66;6096089;19;20055;-71
2023/12/15 06:05:08;;;;;;;12.20;5.80;;;;;;;-0.24;100.00;99753.31;6095252;19;20006;-72
2023/12/15 06:07:09;;;;;;;12.70;5.75;;;;;;;-0.23;100.00;99756.84;6092317;19;19998;-72
2023/12/15 06:09:09;;;;;;;12.05;5.90;;;;;;;-0.23;100.00;99757.66;6094085;19;20006;-72
2023/12/15 06:11:09;;;;;;;13.38;6.28;;;;;;;-0.17;100.00;99756.53;6098424;19;20014;-72
2023/12/15 06:13:10;;;;;;;11.82;5.90;;;;;;;-0.10;100.00;99761.69;6099970;19;20372;-71
2023/12/15 06:15:10;;;;;;;17.10;8.40;;;;;;;0.00;100.00;99756.25;6098941;19;20481;-72
2023/12/15 06:17:11;;;;;;;18.65;8.45;;;;;;;0.05;100.00;99753.47;6099515;19;20011;-72
2023/12/15 06:19:11;;;;;;;15.77;7.28;;;;;;;0.08;100.00;99758.34;6098270;19;20018;-72
2023/12/15 06:21:22;;;;;;;11.13;5.80;;;;;;;0.13;100.00;99762.97;6095910;19;20010;-72
2023/12/15 06:23:22;;;;;;;11.23;5.63;;;;;;;0.16;100.00;99767.84;6100148;19;20029;-72
2023/12/15 06:25:23;;;;;;;12.63;6.55;;;;;;;0.22;100.00;99773.00;6105381;19;20006;-72
2023/12/15 06:27:23;;;;;;;13.07;5.97;;;;;;;0.27;100.00;99775.72;6104889;19;20020;-72
2023/12/15 06:29:23;;;;;;;12.73;6.30;;;;;;;0.28;100.00;99771.09;6105316;19;20408;-72
2023/12/15 06:31:29;;;;;;;12.98;6.60;;;;;;;0.30;100.00;99768.91;6103506;19;20477;-71
2023/12/15 06:33:29;;;;;;;13.82;7.30;;;;;;;0.30;100.00;99768.91;6103098;19;20015;-71
2023/12/15 06:35:29;;;;;;;14.05;6.82;;;;;;;0.35;100.00;99784.41;6101689;19;20007;-72
2023/12/15 06:37:30;;;;;;;11.40;6.13;;;;;;;0.38;100.00;99784.66;6102916;19;20512;-72
2023/12/15 06:39:30;;;;;;;14.75;6.28;;;;;;;0.38;100.00;99792.81;6102300;19;20066;-72
2023/12/15 06:41:30;;;;;;;12.23;6.82;;;;;;;0.44;100.00;99788.19;6101067;19;20089;-72
2023/12/15 06:43:31;;;;;;;12.30;5.90;;;;;;;0.44;100.00;99793.63;6102401;19;20458;-72
2023/12/15 06:45:31;;;;;;;12.55;7.10;;;;;;;0.50;100.00;99798.78;6100562;19;20030;-72
2023/12/15 06:47:32;;;;;;;17.50;7.95;;;;;;;0.54;100.00;99799.03;6101609;19;20010;-72
2023/12/15 06:49:33;;;;;;;18.02;8.70;;;;;;;0.51;100.00;99796.88;6094154;19;20018;-72
2023/12/15 06:51:34;;;;;;;13.95;8.23;;;;;;;0.52;100.00;99796.56;6104407;19;20101;-71
2023/12/15 06:53:34;;;;;;;16.35;9.07;;;;;;;0.53;100.00;99795.47;6104380;19;20295;-72
2023/12/15 06:55:35;;;;;;;16.20;8.55;;;;;;;0.54;100.00;99802.56;6104439;19;20670;-72
2023/12/15 06:57:35;;;;;;;14.23;7.53;;;;;;;0.51;100.00;99802.31;6103296;19;20002;-72
2023/12/15 06:59:36;;;;;;;11.77;6.72;;;;;;;0.53;100.00;99791.94;6102503;19;20016;-72
2023/12/15 07:01:36;;;;;;;15.02;7.63;;;;;;;0.55;100.00;99797.91;6104421;19;20422;-72
2023/12/15 07:03:37;;;;;;;13.98;7.65;;;;;;;0.55;100.00;99806.91;6104501;19;20006;-72
2023/12/15 07:05:37;;;;;;;13.23;7.93;;;;;;;0.57;100.00;99812.88;6101870;19;20317;-72
2023/12/15 07:07:37;;;;;;;12.48;6.90;;;;;;;0.59;100.00;99803.63;6104537;19;20010;-72
2023/12/15 07:09:38;;;;;;;12.75;6.80;;;;;;;0.60;100.00;99813.44;6102113;19;20357;-72
2023/12/15 07:11:40;;;;;;;14.63;7.43;;;;;;;0.62;100.00;99814.78;6104089;19;20051;-72
2023/12/15 07:13:41;;;;;;;11.60;6.68;;;;;;;0.66;100.00;99826.72;6103852;19;20884;-72
2023/12/15 07:15:41;;;;;;;13.60;6.90;;;;;;;0.73;100.00;99826.44;6103227;19;20020;-72
2023/12/15 07:17:41;;;;;;;13.80;8.60;;;;;;;0.83;100.00;99832.66;6103481;19;20017;-72
2023/12/15 07:19:42;;;;;;;12.30;6.60;;;;;;;0.87;100.00;99841.06;6102503;19;20007;-72
2023/12/15 07:21:42;;;;;;;13.88;8.50;;;;;;;0.92;100.00;99851.97;6103771;19;20006;-72
2023/12/15 07:23:43;;;;;;;18.63;9.48;;;;;;;0.96;100.00;99853.00;6104048;19;20002;-72
2023/12/15 07:25:43;;;;;;;19.30;9.25;;;;;;;0.94;100.00;99849.75;6103119;19;19998;-72
2023/12/15 07:27:44;;;;;;;15.60;7.68;;;;;;;1.05;100.00;99858.69;6101366;19;20808;-72
2023/12/15 07:29:44;;;;;;;20.10;11.65;;;;;;;1.03;100.00;99861.69;6102811;19;20275;-72
2023/12/15 07:31:44;;;;;;;16.48;9.05;;;;;;;1.03;100.00;99853.50;6103729;19;20002;-71
2023/12/15 07:33:45;;;;;;;27.25;16.30;;;;;;;1.06;100.00;99852.13;6102629;19;20010;-71
2023/12/15 07:35:45;;;;;;;20.45;11.90;;;;;;;1.04;100.00;99857.88;6101514;19;19995;-71
2023/12/15 07:37:45;;;;;;;16.30;9.70;;;;;;;1.02;100.00;99859.25;6104036;19;20019;-71
2023/12/15 07:39:46;;;;;;;18.15;10.07;;;;;;;0.97;100.00;99862.00;6101671;19;20474;-72
2023/12/15 07:41:49;;;;;;;14.43;8.10;;;;;;;0.97;100.00;99862.00;6103920;19;20003;-72
2023/12/15 07:43:49;;;;;;;15.82;7.25;;;;;;;0.96;100.00;99868.53;6103588;19;20596;-72
2023/12/15 07:45:49;;;;;;;12.70;7.55;;;;;;;0.95;100.00;99869.66;6101233;19;20402;-72
2023/12/15 07:47:50;;;;;;;15.77;7.63;;;;;;;0.96;100.00;99874.81;6103257;19;20010;-72
2023/12/15 07:49:50;;;;;;;15.88;7.85;;;;;;;0.99;100.00;99870.69;6094948;19;20003;-72
2023/12/15 07:51:51;;;;;;;14.13;7.60;;;;;;;0.98;100.00;99875.34;6088736;19;20373;-72
2023/12/15 07:53:51;;;;;;;19.83;9.57;;;;;;;1.00;100.00;99873.16;6088656;19;20023;-72
2023/12/15 07:55:52;;;;;;;31.25;16.70;;;;;;;1.03;100.00;99880.78;6085543;19;20003;-72
2023/12/15 07:57:52;;;;;;;34.65;19.98;;;;;;;1.04;100.00;99874.22;6087969;19;19994;-72
2023/12/15 07:59:53;;;;;;;19.92;11.20;;;;;;;1.10;100.00;99888.66;6087422;19;20003;-72
2023/12/15 08:01:55;;;;;;;20.83;10.30;;;;;;;1.10;100.00;99878.56;6088132;19;20007;-72
2023/12/15 08:03:55;;;;;;;16.75;9.35;;;;;;;1.13;100.00;99886.16;6089500;19;20014;-71
2023/12/15 08:05:55;;;;;;;17.35;7.63;;;;;;;1.16;100.00;99881.22;6088700;19;20503;-71
2023/12/15 08:07:56;;;;;;;14.75;8.15;;;;;;;1.20;100.00;99893.22;6088791;19;19998;-72
2023/12/15 08:09:56;;;;;;;14.10;7.40;;;;;;;1.24;100.00;99899.72;6088040;19;20040;-72
2023/12/15 08:11:56;;;;;;;18.48;8.65;;;;;;;1.29;100.00;99886.88;6088707;19;20556;-72
2023/12/15 08:13:56;;;;;;;16.52;8.15;;;;;;;1.33;100.00;99887.97;6088426;19;20005;-72
2023/12/15 08:15:57;;;;;;;17.48;8.15;;;;;;;1.36;100.00;99887.38;6088029;19;20011;-71
2023/12/15 08:17:57;;;;;;;17.25;7.68;;;;;;;1.40;100.00;99891.16;6089524;19;20014;-71
2023/12/15 08:19:58;;;;;;;12.40;6.82;;;;;;;1.45;100.00;99894.97;6086081;19;20049;-71
2023/12/15 08:21:59;;;;;;;17.73;8.43;;;;;;;1.48;100.00;99892.47;6088336;19;20006;-72
2023/12/15 08:23:59;;;;;;;13.40;6.78;;;;;;;1.49;100.00;99896.84;6089026;19;20809;-72
2023/12/15 08:26:00;;;;;;;15.52;7.45;;;;;;;1.48;100.00;99906.13;6087938;19;20379;-72
2023/12/15 08:28:02;;;;;;;16.60;8.63;;;;;;;1.47;100.00;99907.22;6086775;19;20013;-72
2023/12/15 08:30:03;;;;;;;13.10;6.82;;;;;;;1.47;100.00;99909.94;6086923;19;20025;-72
2023/12/15 08:32:04;;;;;;;14.15;7.43;;;;;;;1.49;100.00;99918.69;6088117;19;19999;-72
2023/12/15 08:34:04;;;;;;;15.20;8.35;;;;;;;1.54;100.00;99928.72;6086791;19;20086;-71
2023/12/15 08:36:05;;;;;;;20.17;9.88;;;;;;;1.57;100.00;99936.34;6088076;19;20010;-71
2023/12/15 08:38:05;;;;;;;15.50;8.60;;;;;;;1.60;100.00;99931.16;6087155;19;20062;-71
2023/12/15 08:40:06;;;;;;;13.18;7.20;;;;;;;1.67;100.00;99934.38;6086192;19;20419;-71
2023/12/15 08:42:06;;;;;;;13.00;7.93;;;;;;;1.74;100.00;99938.66;6087414;19;20492;-71
2023/12/15 08:44:07;;;;;;;14.32;8.18;;;;;;;1.82;100.00;99947.09;6086680;19;20238;-72
2023/12/15 08:46:07;;;;;;;36.63;21.58;;;;;;;1.86;100.00;99950.88;6082712;19;20003;-72
2023/12/15 08:48:08;;;;;;;73.38;38.60;;;;;;;1.86;100.00;99950.06;6086983;19;20269;-72
2023/12/15 08:50:08;;;;;;;56.45;30.23;;;;;;;1.83;100.00;99940.53;6092478;19;20319;-72
2023/12/15 08:52:08;;;;;;;30.00;17.38;;;;;;;1.82;100.00;99940.78;6102126;19;20852;-72
2023/12/15 08:54:09;;;;;;;17.63;10.25;;;;;;;1.83;100.00;99940.53;6102163;19;20029;-72
2023/12/15 08:56:09;;;;;;;17.80;11.10;;;;;;;1.85;100.00;99937.50;6100336;19;20349;-72
2023/12/15 08:58:10;;;;;;;14.52;9.32;;;;;;;1.87;100.00;99927.94;6101020;19;20466;-72
2023/12/15 09:00:10;;;;;;;17.98;10.25;;;;;;;1.89;100.00;99927.63;6100356;19;20010;-72
2023/12/15 09:02:12;;;;;;;15.93;9.10;;;;;;;1.89;100.00;99927.63;6101210;19;20671;-72
2023/12/15 09:04:12;;;;;;;14.05;7.28;;;;;;;1.87;100.00;99935.31;6101241;19;20449;-72
2023/12/15 09:06:14;;;;;;;13.23;7.00;;;;;;;1.88;100.00;99934.19;6100967;19;20046;-72
2023/12/15 09:08:14;;;;;;;13.27;7.32;;;;;;;1.90;100.00;99951.09;6100977;19;20112;-71
2023/12/15 09:10:15;;;;;;;12.73;6.82;;;;;;;1.90;100.00;99951.09;6099994;19;20010;-72
2023/12/15 09:12:15;;;;;;;10.85;6.82;;;;;;;1.94;100.00;99952.19;6101602;19;20009;-71
2023/12/15 09:14:16;;;;;;;11.07;7.13;;;;;;;1.97;100.00;99949.69;6101153;19;20014;-72
2023/12/15 09:16:16;;;;;;;12.63;6.85;;;;;;;2.00;100.00;99963.88;6100841;19;20367;-72
2023/12/15 09:18:17;;;;;;;11.85;6.95;;;;;;;2.05;100.00;99958.38;6101296;19;20034;-72
2023/12/15 09:20:17;;;;;;;17.98;7.47;;;;;;;2.13;100.00;99969.47;6100204;19;20538;-72
2023/12/15 09:22:18;;;;;;;15.02;7.57;;;;;;;2.14;100.00;99962.09;6100997;19;20002;-72